Time;durP1;ratioP1;P1;durP2;ratioP2;P2;SDS_P1;SDS_P2;PMS_P1;PMS_P2;Temp;Humidity;BMP_temperature;BMP_pressure;BME280_temperature;BME280_humidity;BME280_pressure;Samples;Min_cycle;Max_cycle;Signal;HPM_P1;HPM_P2
2022/08/04 00:00:19;;;;;;;6.33;5.73;;;;;;;22.33;71.16;100896.59;5092805;27;103832;-56
2022/08/04 00:02:58;;;;;;;5.97;5.47;;;;;;;22.31;71.29;100892.19;5081493;27;103961;-56
2022/08/04 00:05:31;;;;;;;6.18;5.68;;;;;;;22.31;71.48;100892.19;5077520;27;102609;-56
2022/08/04 00:08:05;;;;;;;6.22;5.72;;;;;;;22.33;71.37;100899.38;5078545;27;102059;-56
2022/08/04 00:10:36;;;;;;;6.32;5.78;;;;;;;22.33;70.98;100904.94;5079151;27;102276;-55
2022/08/04 00:13:04;;;;;;;6.25;5.75;;;;;;;22.30;71.26;100901.69;5078571;27;103943;-55
2022/08/04 00:15:32;;;;;;;6.27;5.67;;;;;;;22.30;71.18;100907.22;5077134;27;102288;-56
2022/08/04 00:18:02;;;;;;;6.32;5.82;;;;;;;22.30;71.26;100901.69;5076973;27;102449;-55
2022/08/04 00:20:29;;;;;;;6.03;5.60;;;;;;;22.30;71.12;100901.69;5078681;27;102184;-56
2022/08/04 00:22:58;;;;;;;6.45;5.88;;;;;;;22.30;71.21;100907.22;5077777;27;104178;-56
2022/08/04 00:25:25;;;;;;;6.75;5.78;;;;;;;22.30;71.16;100907.22;5078191;27;102175;-56
2022/08/04 00:27:54;;;;;;;6.07;5.57;;;;;;;22.30;71.44;100911.97;5078482;27;102226;-56
2022/08/04 00:30:20;;;;;;;;;;;;;;;22.30;71.57;100917.50;5079248;27;102386;-56
2022/08/04 00:32:48;;;;;;;6.28;5.78;;;;;;;22.30;71.27;100923.06;5076479;27;104118;-56
2022/08/04 00:35:15;;;;;;;6.20;5.70;;;;;;;22.30;70.97;100915.53;5074799;27;102176;-56
2022/08/04 00:37:43;;;;;;;6.47;5.95;;;;;;;22.30;71.32;100917.50;5077858;27;102048;-56
2022/08/04 00:40:20;;;;;;;6.00;5.53;;;;;;;22.29;71.21;100916.69;5078643;27;102362;-56
2022/08/04 00:42:58;;;;;;;6.03;5.53;;;;;;;22.31;71.41;100924.66;5063677;27;104219;-56
2022/08/04 00:45:52;;;;;;;6.43;5.83;;;;;;;22.30;71.28;100923.06;5058485;27;102025;-56
2022/08/04 00:48:32;;;;;;;6.13;5.63;;;;;;;22.29;71.43;100925.03;5060920;27;102177;-56
2022/08/04 00:51:10;;;;;;;6.18;5.68;;;;;;;22.29;71.28;100930.56;5077232;27;102658;-56
2022/08/04 00:53:47;;;;;;;5.65;5.25;;;;;;;22.28;71.34;100919.81;5077193;27;103868;-56
2022/08/04 00:56:50;;;;;;;6.10;5.68;;;;;;;22.28;71.51;100926.16;5077499;27;102070;-56
2022/08/04 00:59:36;;;;;;;6.50;6.00;;;;;;;22.29;71.17;100932.53;5058745;27;102428;-56
2022/08/04 01:02:16;;;;;;;5.85;5.35;;;;;;;22.28;71.30;100920.59;5078686;27;102267;-56
2022/08/04 01:04:55;;;;;;;5.85;5.45;;;;;;;22.28;71.34;100926.16;5076424;27;103875;-56
2022/08/04 01:07:41;;;;;;;6.40;5.90;;;;;;;22.28;71.37;100925.34;5077870;27;101955;-56
2022/08/04 01:10:18;;;;;;;6.07;5.57;;;;;;;22.28;71.30;100941.97;5077326;27;102397;-56
2022/08/04 01:13:13;;;;;;;5.60;5.20;;;;;;;22.28;71.26;100931.69;5078839;27;102234;-56
2022/08/04 01:15:53;;;;;;;6.10;5.70;;;;;;;22.28;71.40;100926.16;5077173;27;103895;-56
2022/08/04 01:18:24;;;;;;;6.22;5.72;;;;;;;22.28;71.49;100936.44;5077610;27;102144;-56
2022/08/04 01:21:05;;;;;;;6.07;5.60;;;;;;;22.28;71.46;100937.25;5076126;27;102321;-56
2022/08/04 01:23:52;;;;;;;6.63;6.13;;;;;;;22.28;71.46;100930.91;5083234;27;101959;-56
2022/08/04 01:26:49;;;;;;;6.25;5.75;;;;;;;22.27;71.43;100935.63;5089420;27;103934;-56
2022/08/04 01:29:21;;;;;;;6.15;5.65;;;;;;;22.28;71.35;100939.22;5023585;27;102351;-56
2022/08/04 01:32:01;;;;;;;6.03;5.53;;;;;;;22.27;71.21;100935.63;5075326;27;102358;-56
2022/08/04 01:34:32;;;;;;;6.07;5.57;;;;;;;22.27;71.27;100930.09;5078414;27;102125;-56
2022/08/04 01:37:07;;;;;;;6.18;5.68;;;;;;;22.28;71.40;100936.44;5076754;27;103994;-56
2022/08/04 01:39:55;;;;;;;6.28;5.68;;;;;;;22.27;71.38;100935.63;5077008;27;101957;-56
2022/08/04 01:42:25;;;;;;;6.37;5.73;;;;;;;22.27;71.28;100929.28;5060581;27;102033;-55
2022/08/04 01:44:57;;;;;;;6.18;5.63;;;;;;;22.27;71.41;100929.28;5086682;27;102223;-56
2022/08/04 01:47:28;;;;;;;5.72;5.22;;;;;;;22.27;71.45;100932.84;5076351;27;103650;-56
2022/08/04 01:50:03;;;;;;;6.45;5.80;;;;;;;22.27;71.27;100927.31;5089954;27;102109;-56
2022/08/04 01:52:31;;;;;;;5.45;5.05;;;;;;;22.26;71.16;100925.72;5076900;27;102084;-56
2022/08/04 01:55:00;;;;;;;5.68;5.28;;;;;;;22.26;71.42;100920.16;5077914;27;102232;-56
2022/08/04 01:57:27;;;;;;;6.18;5.68;;;;;;;22.27;71.39;100923.75;5076817;27;104026;-56
2022/08/04 01:59:58;;;;;;;5.60;5.18;;;;;;;22.27;71.46;100930.09;5076503;27;102252;-57
2022/08/04 02:02:25;;;;;;;6.00;5.50;;;;;;;22.27;71.42;100932.84;5075789;27;102285;-56
2022/08/04 02:04:51;;;;;;;5.97;5.53;;;;;;;22.27;71.31;100932.84;5078250;27;102242;-56
2022/08/04 02:07:32;;;;;;;5.50;5.10;;;;;;;22.25;71.25;100926.88;5075963;27;104089;-56
2022/08/04 02:10:05;;;;;;;6.28;5.78;;;;;;;22.26;71.42;100922.94;5077088;27;101984;-56
2022/08/04 02:12:55;;;;;;;5.97;5.55;;;;;;;22.26;71.33;100922.94;5076692;27;102169;-56
2022/08/04 02:15:27;;;;;;;6.30;5.80;;;;;;;22.25;71.39;100914.94;5076722;27;102424;-56
2022/08/04 02:18:00;;;;;;;5.70;5.30;;;;;;;22.25;71.43;100921.31;5076446;27;103955;-56
2022/08/04 02:20:32;;;;;;;5.80;5.30;;;;;;;22.26;71.42;100927.69;5076897;27;102098;-56
2022/08/04 02:23:02;;;;;;;5.72;5.30;;;;;;;22.25;71.20;100926.88;5075174;27;102007;-55
2022/08/04 02:25:33;;;;;;;6.00;5.50;;;;;;;22.25;71.28;100926.88;5077264;27;102086;-56
2022/08/04 02:28:14;;;;;;;6.30;5.75;;;;;;;22.26;71.25;100922.94;5076591;27;103858;-56
2022/08/04 02:30:54;;;;;;;5.63;5.18;;;;;;;22.25;71.35;100921.31;5076603;27;102289;-56
2022/08/04 02:33:26;;;;;;;6.97;5.75;;;;;;;22.25;71.46;100932.41;5076535;27;102119;-56
2022/08/04 02:35:58;;;;;;;6.13;5.63;;;;;;;22.26;71.23;100934.03;5077306;27;102134;-56
2022/08/04 02:38:37;;;;;;;5.90;5.40;;;;;;;22.26;71.35;100930.44;5074759;27;103965;-56
2022/08/04 02:41:06;;;;;;;5.80;5.40;;;;;;;22.27;71.25;100932.06;5076886;27;102309;-56
2022/08/04 02:43:35;;;;;;;6.03;5.53;;;;;;;22.25;71.43;100921.31;5061767;27;102223;-56
2022/08/04 02:46:05;;;;;;;6.32;5.82;;;;;;;22.26;71.33;100934.03;5063299;27;102309;-56
2022/08/04 02:48:35;;;;;;;5.57;5.18;;;;;;;22.26;71.57;100928.47;5075948;27;103958;-55
2022/08/04 02:51:04;;;;;;;5.82;5.32;;;;;;;22.26;71.55;100930.44;5077077;27;102278;-56
2022/08/04 02:53:35;;;;;;;6.00;5.60;;;;;;;22.23;71.33;100920.84;5072407;27;102033;-56
2022/08/04 02:56:05;;;;;;;5.50;5.10;;;;;;;22.23;71.22;100926.41;5077472;27;102142;-56
2022/08/04 02:58:35;;;;;;;5.93;5.40;;;;;;;22.23;71.37;100923.63;5075054;27;103591;-56
2022/08/04 03:01:04;;;;;;;5.80;5.30;;;;;;;22.23;71.52;100929.16;5077671;27;102246;-56
2022/08/04 03:03:38;;;;;;;6.05;5.55;;;;;;;22.23;71.38;100929.16;5079079;27;102401;-56
2022/08/04 03:06:38;;;;;;;5.88;5.47;;;;;;;22.24;71.42;100929.97;5080809;27;102032;-56
2022/08/04 03:09:40;;;;;;;5.78;5.32;;;;;;;22.23;71.39;100939.44;5079426;27;103903;-56
2022/08/04 03:12:33;;;;;;;5.80;5.30;;;;;;;22.23;71.37;100931.94;5099677;27;102573;-55
2022/08/04 03:15:25;;;;;;;5.40;5.00;;;;;;;22.25;71.33;100937.97;5100041;27;102108;-56
2022/08/04 03:18:14;;;;;;;5.57;5.15;;;;;;;22.26;71.36;100939.56;5101312;27;102188;-56
2022/08/04 03:21:04;;;;;;;6.15;5.65;;;;;;;22.26;71.26;100939.56;5098739;27;103953;-56
2022/08/04 03:24:21;;;;;;;6.22;5.72;;;;;;;22.25;71.40;100935.19;5099844;27;102569;-56
2022/08/04 03:27:21;;;;;;;5.97;5.47;;;;;;;22.26;71.43;100936.78;5063661;27;102157;-55
2022/08/04 03:30:13;;;;;;;5.95;5.45;;;;;;;22.25;71.36;100937.13;5076869;27;102319;-56
2022/08/04 03:33:10;;;;;;;5.68;5.18;;;;;;;22.26;71.54;100931.25;5067073;27;104106;-56
2022/08/04 03:36:12;;;;;;;5.68;5.22;;;;;;;22.27;71.44;100941.19;5100875;27;102809;-56
2022/08/04 03:39:02;;;;;;;6.28;5.68;;;;;;;22.27;71.38;100941.19;5093025;27;103529;-56
2022/08/04 03:41:46;;;;;;;5.20;4.80;;;;;;;22.28;71.34;100939.22;5100966;27;102168;-56
2022/08/04 03:44:35;;;;;;;5.80;5.38;;;;;;;22.28;71.24;100937.25;5100057;27;103838;-56
2022/08/04 03:47:24;;;;;;;5.82;5.32;;;;;;;22.28;71.47;100933.66;5120988;27;102304;-56
2022/08/04 03:50:20;;;;;;;5.70;5.20;;;;;;;22.28;71.23;100934.47;5102713;27;102547;-56
2022/08/04 03:53:21;;;;;;;5.00;4.60;;;;;;;22.29;71.39;100927.00;5099812;27;102129;-56
2022/08/04 03:56:19;;;;;;;5.07;4.68;;;;;;;22.29;71.41;100933.34;5078714;27;103952;-55
2022/08/04 03:59:11;;;;;;;5.35;4.95;;;;;;;22.31;71.46;100935.75;5045537;27;102453;-56
2022/08/04 04:02:04;;;;;;;5.30;4.80;;;;;;;22.31;71.08;100942.09;5095855;27;102490;-56
2022/08/04 04:04:51;;;;;;;5.40;5.00;;;;;;;22.34;71.47;100950.91;5099997;27;102381;-56
2022/08/04 04:07:49;;;;;;;5.38;4.90;;;;;;;22.33;71.47;100946.50;5097836;27;107834;-56
2022/08/04 04:10:23;;;;;;;;;;;;;;;22.34;71.48;100950.91;5100206;27;102148;-55
2022/08/04 04:13:14;;;;;;;5.10;4.70;;;;;;;22.34;71.13;100945.34;5116947;27;103807;-56
2022/08/04 04:16:04;;;;;;;4.97;4.57;;;;;;;22.34;71.55;100950.91;5091167;27;102419;-56
2022/08/04 04:18:51;;;;;;;5.13;4.72;;;;;;;22.35;71.35;100950.53;5097104;27;104012;-56
2022/08/04 04:21:46;;;;;;;5.60;5.15;;;;;;;22.35;71.44;100958.06;5094914;27;102125;-56
2022/08/04 04:24:42;;;;;;;5.30;4.90;;;;;;;22.34;71.29;100951.69;5075869;27;102405;-56
2022/08/04 04:27:23;;;;;;;5.20;4.80;;;;;;;22.33;71.19;100957.59;5085535;27;102333;-56
2022/08/04 04:30:15;;;;;;;5.22;4.72;;;;;;;22.30;71.53;100965.44;5077402;27;104257;-56
2022/08/04 04:33:06;;;;;;;5.45;5.05;;;;;;;22.32;71.65;100959.53;5074413;27;102362;-56
2022/08/04 04:35:40;;;;;;;5.28;4.88;;;;;;;22.30;71.41;100962.66;5078216;27;102453;-56
2022/08/04 04:38:20;;;;;;;5.70;5.30;;;;;;;22.31;71.60;100957.94;5079135;27;102708;-56
2022/08/04 04:40:58;;;;;;;5.20;4.75;;;;;;;22.30;71.58;100962.66;5074666;27;103906;-56
2022/08/04 04:43:52;;;;;;;5.55;5.05;;;;;;;22.30;71.57;100962.66;5077935;27;102829;-56
2022/08/04 04:46:29;;;;;;;5.32;4.93;;;;;;;22.31;71.59;100963.47;5056885;27;102432;-55
2022/08/04 04:49:03;;;;;;;5.60;5.13;;;;;;;22.30;71.47;100968.22;5078777;27;102445;-56
2022/08/04 04:51:41;;;;;;;5.30;4.90;;;;;;;22.30;71.58;100967.41;5057907;27;104101;-56
2022/08/04 04:54:13;;;;;;;5.80;5.30;;;;;;;22.30;71.58;100970.19;5067892;27;102274;-56
2022/08/04 04:56:45;;;;;;;6.25;5.65;;;;;;;22.29;71.51;100966.59;5076286;27;102077;-56
2022/08/04 04:59:17;;;;;;;5.82;5.28;;;;;;;22.30;71.77;100967.41;5078942;27;102434;-56
2022/08/04 05:02:20;;;;;;;5.45;5.05;;;;;;;22.30;71.67;100971.00;5076373;27;103876;-56
2022/08/04 05:05:46;;;;;;;5.97;5.55;;;;;;;22.30;71.58;100962.66;5077047;27;102600;-56
2022/08/04 05:08:43;;;;;;;6.78;6.28;;;;;;;22.30;71.54;100968.22;4977798;28;102076;-56
2022/08/04 05:11:37;;;;;;;6.38;5.88;;;;;;;22.30;71.58;100968.22;5049604;27;102299;-56
2022/08/04 05:14:08;;;;;;;6.15;5.65;;;;;;;22.30;71.75;100962.66;5076945;27;104076;-56
2022/08/04 05:16:40;;;;;;;5.88;5.38;;;;;;;22.31;71.50;100969.81;5091127;27;102137;-56
2022/08/04 05:19:18;;;;;;;5.88;5.47;;;;;;;22.30;71.70;100973.75;5098187;27;102226;-56
2022/08/04 05:21:48;;;;;;;6.50;6.00;;;;;;;22.33;71.35;100965.91;5098496;27;102098;-56
2022/08/04 05:24:19;;;;;;;6.85;6.22;;;;;;;22.33;71.58;100977.00;5076317;27;103934;-56
2022/08/04 05:26:50;;;;;;;6.65;6.05;;;;;;;22.33;71.33;100974.25;5075893;27;103754;-56
2022/08/04 05:29:26;;;;;;;6.45;5.95;;;;;;;22.34;71.45;100973.06;5067851;27;102266;-56
2022/08/04 05:31:56;;;;;;;6.40;5.90;;;;;;;22.34;71.44;100979.44;5058139;27;102217;-56
2022/08/04 05:34:27;;;;;;;6.40;5.82;;;;;;;22.33;71.48;100977.81;5088502;27;104047;-56
2022/08/04 05:36:58;;;;;;;6.78;6.18;;;;;;;22.33;71.63;100983.38;5079615;27;102437;-56
2022/08/04 05:39:27;;;;;;;6.60;6.10;;;;;;;22.31;71.62;100980.91;5098079;27;102231;-56
2022/08/04 05:41:53;;;;;;;;;;;;;;;22.31;71.58;100986.47;5099189;27;102321;-56
2022/08/04 05:44:22;;;;;;;7.22;6.65;;;;;;;22.31;71.71;100986.47;5094695;27;103859;-55
2022/08/04 05:46:53;;;;;;;6.93;6.43;;;;;;;22.31;71.50;100997.56;5096391;27;102472;-56
2022/08/04 05:49:22;;;;;;;6.97;6.38;;;;;;;22.31;71.71;100989.22;5089065;27;102328;-56
2022/08/04 05:51:51;;;;;;;6.70;6.20;;;;;;;22.30;71.67;100990.41;5090670;27;102144;-55
2022/08/04 05:54:19;;;;;;;7.28;6.68;;;;;;;22.31;71.64;100994.78;5088442;27;103913;-59
2022/08/04 05:56:46;;;;;;;;;;;;;;;22.31;71.55;100994.78;5098420;27;101931;-56
2022/08/04 05:59:15;;;;;;;7.65;6.95;;;;;;;22.33;71.60;100999.19;5089881;27;102128;-56
2022/08/04 06:01:42;;;;;;;;;;;;;;;22.32;71.75;101003.91;5079289;27;104315;-56
2022/08/04 06:04:09;;;;;;;7.53;6.93;;;;;;;22.33;71.68;101001.97;5075221;27;103707;-56
2022/08/04 06:06:39;;;;;;;8.30;7.57;;;;;;;22.31;71.68;101003.09;5075615;27;102260;-56
2022/08/04 06:09:05;;;;;;;8.35;7.15;;;;;;;22.32;71.64;101001.13;5073038;27;102289;-56
2022/08/04 06:11:34;;;;;;;7.65;6.97;;;;;;;22.34;71.65;101006.34;5086368;27;102531;-56
2022/08/04 06:14:06;;;;;;;7.75;7.05;;;;;;;22.33;71.73;100994.44;5096241;27;104091;-56
2022/08/04 06:16:38;;;;;;;8.25;7.55;;;;;;;22.33;71.65;100999.19;5097385;27;102351;-56
2022/08/04 06:19:07;;;;;;;7.78;7.10;;;;;;;22.34;71.63;101003.56;5067145;27;102160;-56
2022/08/04 06:21:37;;;;;;;7.82;7.13;;;;;;;22.33;71.57;101011.09;5075742;27;102528;-56
2022/08/04 06:24:12;;;;;;;8.38;7.68;;;;;;;22.33;71.73;100999.19;5076057;27;103927;-56
2022/08/04 06:26:39;;;;;;;8.63;7.93;;;;;;;22.33;71.57;101001.97;5070006;27;102054;-56
2022/08/04 06:29:17;;;;;;;8.80;8.10;;;;;;;22.34;71.61;101006.34;5071990;27;102174;-56
2022/08/04 06:31:46;;;;;;;8.40;7.70;;;;;;;22.33;71.92;100999.19;5064043;27;102037;-56
2022/08/04 06:34:15;;;;;;;8.25;7.43;;;;;;;22.33;71.81;101007.50;5067394;27;103888;-56
2022/08/04 06:36:42;;;;;;;9.15;8.32;;;;;;;22.33;71.46;101013.06;5078313;27;102096;-56
2022/08/04 06:39:12;;;;;;;8.45;7.75;;;;;;;22.33;71.82;101005.53;5078308;27;102389;-56
2022/08/04 06:41:39;;;;;;;9.43;8.63;;;;;;;22.31;71.91;101005.88;5079183;27;102630;-56
2022/08/04 06:44:08;;;;;;;8.88;8.07;;;;;;;22.31;71.74;101014.19;5077952;27;104076;-56
2022/08/04 06:46:37;;;;;;;9.07;8.27;;;;;;;22.31;71.85;101008.66;5080216;27;102615;-56
2022/08/04 06:49:04;;;;;;;8.82;7.93;;;;;;;22.31;71.89;101016.97;5062021;27;102270;-56
2022/08/04 06:51:33;;;;;;;9.40;8.57;;;;;;;22.31;71.81;101013.38;5060655;27;102430;-55
2022/08/04 06:53:59;;;;;;;9.90;9.00;;;;;;;22.30;71.79;101012.56;5075149;27;104004;-56
2022/08/04 06:56:30;;;;;;;11.98;9.20;;;;;;;22.31;71.87;101003.09;5079861;27;102407;-56
2022/08/04 06:58:58;;;;;;;9.55;8.75;;;;;;;22.30;71.80;101001.50;5079711;27;102070;-55
2022/08/04 07:01:26;;;;;;;10.38;9.50;;;;;;;22.30;71.88;101007.03;5072698;27;102236;-55
2022/08/04 07:03:53;;;;;;;10.35;9.45;;;;;;;22.30;71.76;101007.03;5058830;27;104054;-56
2022/08/04 07:06:21;;;;;;;9.43;8.63;;;;;;;22.31;71.87;101008.66;5072248;27;102544;-55
2022/08/04 07:08:48;;;;;;;10.57;9.68;;;;;;;22.33;72.08;101010.28;5078516;27;102692;-56
2022/08/04 07:11:16;;;;;;;10.20;9.27;;;;;;;22.30;71.88;101007.03;5080322;27;102292;-56
2022/08/04 07:13:45;;;;;;;11.02;9.93;;;;;;;22.31;71.87;101003.09;5077622;27;103685;-56
2022/08/04 07:16:14;;;;;;;10.45;9.52;;;;;;;22.31;71.96;101002.28;5078470;27;102694;-56
2022/08/04 07:18:40;;;;;;;11.55;9.52;;;;;;;22.30;71.88;101001.50;5075766;27;102980;-56
2022/08/04 07:21:07;;;;;;;10.50;9.60;;;;;;;22.31;71.82;101003.09;5092682;27;103089;-56
2022/08/04 07:23:35;;;;;;;11.70;10.68;;;;;;;22.30;71.83;101007.03;5094546;27;104056;-56
2022/08/04 07:26:01;;;;;;;10.80;9.80;;;;;;;22.30;72.05;100995.94;5099386;27;101977;-56
2022/08/04 07:28:29;;;;;;;11.05;10.13;;;;;;;22.30;72.08;100998.72;5094242;27;102409;-56
2022/08/04 07:30:57;;;;;;;10.50;9.60;;;;;;;22.29;72.01;100994.34;5079737;27;102287;-56
2022/08/04 07:33:25;;;;;;;10.77;9.87;;;;;;;22.30;71.85;100995.13;5078532;27;103892;-56
2022/08/04 07:35:53;;;;;;;12.10;10.90;;;;;;;22.30;71.89;100997.91;5079450;27;102190;-55
2022/08/04 07:38:20;;;;;;;11.18;10.18;;;;;;;22.30;71.75;101001.50;5078921;27;102323;-56
2022/08/04 07:40:47;;;;;;;12.18;10.98;;;;;;;22.30;71.90;100990.41;5087497;27;102309;-56
2022/08/04 07:43:15;;;;;;;11.73;10.70;;;;;;;22.29;72.02;100999.88;5084324;27;103871;-56
2022/08/04 07:45:42;;;;;;;12.85;11.68;;;;;;;22.30;71.95;101001.50;5059405;27;102334;-56
2022/08/04 07:48:10;;;;;;;12.30;11.20;;;;;;;22.30;72.10;101001.50;5060651;27;102136;-56
2022/08/04 07:50:37;;;;;;;11.45;10.45;;;;;;;22.31;72.03;101007.84;5088882;27;102476;-56
2022/08/04 07:53:05;;;;;;;11.98;10.88;;;;;;;22.30;72.02;101007.03;5097470;27;103933;-55
2022/08/04 07:55:32;;;;;;;11.55;10.55;;;;;;;22.31;72.05;101005.06;5079387;27;102071;-56
2022/08/04 07:57:59;;;;;;;12.40;11.30;;;;;;;22.33;71.76;101004.75;5078817;27;102335;-56
2022/08/04 08:00:26;;;;;;;12.50;11.20;;;;;;;22.32;71.96;101009.44;5099318;27;102180;-56
2022/08/04 08:02:54;;;;;;;12.75;11.55;;;;;;;22.32;71.88;101003.91;5111468;27;104175;-56
2022/08/04 08:05:23;;;;;;;12.73;11.60;;;;;;;22.33;71.86;101004.75;5099303;27;102164;-56
2022/08/04 08:07:50;;;;;;;12.70;11.50;;;;;;;22.34;71.93;101006.34;5098931;27;102461;-56
2022/08/04 08:10:17;;;;;;;13.07;11.88;;;;;;;22.33;71.81;101007.50;5100476;27;102484;-57
2022/08/04 08:12:45;;;;;;;13.15;11.85;;;;;;;22.34;71.79;101003.56;5098661;27;104007;-56
2022/08/04 08:15:12;;;;;;;13.10;11.90;;;;;;;22.35;71.65;100996.88;5099633;27;102246;-56
2022/08/04 08:17:39;;;;;;;12.52;11.32;;;;;;;22.35;71.72;101003.22;5109656;27;102394;-55
2022/08/04 08:20:06;;;;;;;12.18;10.93;;;;;;;22.35;71.46;101006.00;5120899;27;102111;-56
2022/08/04 08:22:35;;;;;;;12.13;11.02;;;;;;;22.36;71.62;101001.25;5112689;27;103913;-56
2022/08/04 08:25:01;;;;;;;;;;;;;;;22.37;71.25;101005.66;5080525;27;102003;-56
2022/08/04 08:27:28;;;;;;;12.75;11.55;;;;;;;22.38;71.49;101001.72;5078285;27;102333;-56
2022/08/04 08:29:55;;;;;;;12.95;11.77;;;;;;;22.40;71.58;101002.22;5079270;27;102215;-56
2022/08/04 08:32:21;;;;;;;12.82;11.63;;;;;;;22.40;71.60;100999.44;5091226;27;103890;-56
2022/08/04 08:34:48;;;;;;;11.98;10.88;;;;;;;22.41;71.26;101003.81;5084623;27;101948;-56
2022/08/04 08:37:23;;;;;;;12.52;11.38;;;;;;;22.41;71.58;101001.84;5077865;27;102412;-56
2022/08/04 08:39:57;;;;;;;12.13;11.02;;;;;;;22.41;71.41;100995.50;5078614;27;102476;-56
2022/08/04 08:42:48;;;;;;;12.88;11.68;;;;;;;22.41;71.39;100996.31;5064392;27;104110;-56
2022/08/04 08:45:44;;;;;;;13.07;11.88;;;;;;;22.43;71.35;100998.72;5070547;27;102401;-56
2022/08/04 08:48:42;;;;;;;13.55;12.00;;;;;;;22.41;71.42;100998.28;5077550;27;102143;-56
2022/08/04 08:51:51;;;;;;;13.55;12.35;;;;;;;22.40;71.27;100991.91;5043533;27;102747;-56
2022/08/04 08:54:43;;;;;;;12.77;11.63;;;;;;;22.41;71.05;100995.50;4967029;28;104095;-56
2022/08/04 08:57:33;;;;;;;13.52;12.25;;;;;;;22.41;71.63;101001.03;5077316;27;102049;-56
2022/08/04 09:00:11;;;;;;;12.35;11.25;;;;;;;22.41;71.47;100999.06;5075968;27;102448;-55
2022/08/04 09:03:05;;;;;;;13.27;11.98;;;;;;;22.43;71.34;100993.19;5090239;27;103787;-56
2022/08/04 09:05:56;;;;;;;13.52;12.32;;;;;;;22.42;71.57;100994.34;5096479;27;104062;-55
2022/08/04 09:08:47;;;;;;;12.80;11.60;;;;;;;22.42;71.43;100997.91;5087057;27;101999;-56
2022/08/04 09:11:17;;;;;;;13.40;12.30;;;;;;;22.43;71.50;100995.94;5097758;27;102480;-56
2022/08/04 09:13:53;;;;;;;12.98;11.80;;;;;;;22.44;71.39;100997.59;5092772;27;102523;-56
2022/08/04 09:16:26;;;;;;;14.95;11.82;;;;;;;22.44;71.27;100995.63;5093451;27;103919;-56
2022/08/04 09:18:59;;;;;;;21.02;11.68;;;;;;;22.44;71.18;101001.16;5095488;27;102456;-56
2022/08/04 09:21:36;;;;;;;13.50;12.30;;;;;;;22.45;71.06;100996.44;5087339;27;102245;-56
2022/08/04 09:24:09;;;;;;;12.10;11.10;;;;;;;22.45;71.23;100993.66;5065010;27;102240;-55
2022/08/04 09:26:43;;;;;;;12.95;11.80;;;;;;;22.45;71.38;100997.22;5084904;27;104022;-56
2022/08/04 09:29:18;;;;;;;12.60;11.50;;;;;;;22.45;71.48;101001.97;5076930;27;102184;-56
2022/08/04 09:31:53;;;;;;;12.40;11.20;;;;;;;22.47;71.38;101005.22;5076867;27;102182;-55
2022/08/04 09:34:31;;;;;;;12.60;11.50;;;;;;;22.47;71.41;100999.69;5073778;27;102760;-56
2022/08/04 09:37:11;;;;;;;12.35;11.25;;;;;;;22.46;71.37;100998.03;5068763;27;104078;-56
2022/08/04 09:39:45;;;;;;;11.55;10.65;;;;;;;22.46;71.55;101003.59;5069711;27;102175;-56
2022/08/04 09:42:22;;;;;;;12.55;11.50;;;;;;;22.47;71.49;100996.91;5073693;27;102270;-56
2022/08/04 09:44:59;;;;;;;12.18;10.95;;;;;;;22.47;71.39;100997.72;5071576;27;102011;-56
2022/08/04 09:47:33;;;;;;;12.35;11.25;;;;;;;22.47;71.37;100994.13;5077037;27;103952;-56
2022/08/04 09:50:08;;;;;;;12.57;11.32;;;;;;;22.48;71.37;100992.97;5077709;27;101930;-56
2022/08/04 09:52:46;;;;;;;12.43;11.43;;;;;;;22.48;71.17;100998.50;5076030;27;102258;-56
2022/08/04 09:55:24;;;;;;;12.75;11.60;;;;;;;22.49;71.12;100992.59;5071388;27;102307;-57
2022/08/04 09:58:01;;;;;;;13.00;11.90;;;;;;;22.49;71.16;100991.81;5082025;27;107841;-56
2022/08/04 10:00:39;;;;;;;12.88;11.73;;;;;;;22.51;71.04;100992.28;5103621;27;102324;-56
2022/08/04 10:03:09;;;;;;;13.35;12.05;;;;;;;22.51;70.98;100995.84;5090459;27;102250;-56
2022/08/04 10:05:48;;;;;;;14.00;12.73;;;;;;;22.52;71.20;100991.13;5086858;27;102733;-56
2022/08/04 10:08:21;;;;;;;;;;;;;;;22.51;71.42;100989.50;5085246;27;104002;-56
2022/08/04 10:10:58;;;;;;;13.85;12.60;;;;;;;22.51;71.30;100995.84;5088578;27;103030;-56
2022/08/04 10:13:46;;;;;;;13.10;11.90;;;;;;;22.51;71.30;100990.31;5098442;27;102363;-56
2022/08/04 10:16:36;;;;;;;11.93;10.85;;;;;;;22.51;71.32;100983.97;5102199;27;102002;-56
2022/08/04 10:19:14;;;;;;;13.38;12.18;;;;;;;22.52;70.80;100996.66;5100516;27;104066;-56
2022/08/04 10:21:52;;;;;;;13.18;11.98;;;;;;;22.53;71.42;100998.28;5099645;27;102203;-56
2022/08/04 10:24:30;;;;;;;14.15;12.85;;;;;;;22.51;71.09;100990.31;5099630;27;102154;-56
2022/08/04 10:27:01;;;;;;;12.37;11.37;;;;;;;22.51;71.34;100992.28;5101547;27;102325;-56
2022/08/04 10:29:36;;;;;;;12.10;11.02;;;;;;;22.51;71.46;100989.50;5082239;27;103971;-57
2022/08/04 10:32:10;;;;;;;13.13;12.02;;;;;;;22.53;71.24;100995.50;5099009;27;102212;-56
2022/08/04 10:34:41;;;;;;;13.25;12.00;;;;;;;22.53;71.29;100987.19;5099676;27;102545;-56
2022/08/04 10:37:17;;;;;;;12.18;11.18;;;;;;;22.52;71.27;100991.13;5100772;27;102035;-56
2022/08/04 10:42:48;;;;;;;12.30;11.23;;;;;;;22.51;71.47;100979.22;5099238;27;102152;-56
2022/08/04 10:45:18;;;;;;;13.32;12.23;;;;;;;22.52;71.12;100975.28;5087699;27;102413;-56
2022/08/04 10:47:56;;;;;;;12.40;11.20;;;;;;;22.53;71.27;100978.84;5095105;27;102464;-56
2022/08/04 10:50:25;;;;;;;13.23;12.13;;;;;;;22.54;70.86;100977.72;5085985;27;103545;-56
2022/08/04 10:52:59;;;;;;;11.90;10.90;;;;;;;22.53;71.25;100979.66;5082305;27;102583;-56
2022/08/04 10:55:32;;;;;;;12.20;11.10;;;;;;;22.52;71.65;100974.47;5084008;27;102172;-56
2022/08/04 10:58:01;;;;;;;12.70;11.60;;;;;;;22.52;71.26;100974.47;5075700;27;103316;-56
2022/08/04 11:00:32;;;;;;;12.43;11.43;;;;;;;22.54;70.88;100977.72;5079567;27;104066;-56
2022/08/04 11:03:09;;;;;;;13.32;12.13;;;;;;;22.54;71.28;100984.06;5076855;27;103361;-56
2022/08/04 11:05:40;;;;;;;13.00;11.90;;;;;;;22.54;71.34;100972.19;5070615;27;102268;-55
2022/08/04 11:08:11;;;;;;;12.35;11.35;;;;;;;22.54;71.36;100974.94;5075685;27;102227;-56
2022/08/04 11:10:45;;;;;;;12.45;11.35;;;;;;;22.54;71.28;100966.63;5075995;27;103816;-56
2022/08/04 11:13:15;;;;;;;12.27;11.27;;;;;;;22.53;71.35;100962.22;5083929;27;102229;-56
2022/08/04 11:15:48;;;;;;;12.50;11.40;;;;;;;22.53;71.20;100967.75;5081886;27;102221;-56
2022/08/04 11:18:24;;;;;;;11.40;10.48;;;;;;;22.52;71.43;100957.84;5078183;27;102169;-55
2022/08/04 11:20:57;;;;;;;12.55;11.38;;;;;;;22.52;71.30;100963.38;5079100;27;104077;-56
2022/08/04 11:23:30;;;;;;;12.43;11.43;;;;;;;22.54;71.12;100961.09;5072021;27;102098;-56
2022/08/04 11:26:04;;;;;;;11.85;10.85;;;;;;;22.53;71.44;100956.66;5078530;27;102381;-56
2022/08/04 11:28:41;;;;;;;12.55;11.45;;;;;;;22.53;71.09;100962.22;5064604;27;102057;-56
2022/08/04 11:31:13;;;;;;;11.77;10.77;;;;;;;22.53;71.31;100965.00;5058300;27;103939;-56
2022/08/04 11:33:49;;;;;;;12.40;11.30;;;;;;;22.52;71.20;100963.38;5059412;27;102103;-57
2022/08/04 11:36:21;;;;;;;12.57;11.48;;;;;;;22.52;71.35;100946.75;5058290;27;102494;-56
2022/08/04 11:38:58;;;;;;;11.35;10.35;;;;;;;22.51;71.30;100961.78;5076546;27;103187;-56
2022/08/04 11:41:37;;;;;;;12.20;11.20;;;;;;;22.52;71.52;100952.28;5076759;27;104052;-57
2022/08/04 11:44:06;;;;;;;11.77;10.77;;;;;;;22.51;71.24;100953.44;5120714;27;101974;-59
2022/08/04 11:46:39;;;;;;;11.80;10.80;;;;;;;22.50;71.37;100949.03;5109505;27;102197;-55
2022/08/04 11:49:13;;;;;;;11.77;10.77;;;;;;;22.50;71.53;100954.59;5081783;27;102091;-56
2022/08/04 11:51:43;;;;;;;12.13;11.05;;;;;;;22.50;71.34;100949.03;5094789;27;103987;-55
2022/08/04 11:54:11;;;;;;;11.82;10.82;;;;;;;22.49;71.63;100942.69;5087076;27;102212;-56